Irish Green, Utah
Current Conditions -  °F | °C
As of 3:35 AM on Monday 22 Dec 2014 (Local Time) from KBDG Reporting Station
Scattered Clouds Scattered Clouds  
Wind Chill: 27°   Ceiling: Unl
Heat Index: 35°   Visibility: 10mi
Dew Point: 32°   Wind: 10mph
Humidity: 90%   Direction: 220°SW
Pressure: 30.02"   Gusts: NA
Location:  37.6208°N, 109.479°W
Report Text: KBDG 221035Z AUTO 22009KT 200V290 10SM SCT041 SCT065 01/00 A3002 RMK AO1 T00140000
Loading
Personal Weather Stations






























Interactive Weather Map New forecast layout! Learn more

10-Day Weather Forecast

Advertisements
Track Severe Weather on mobile